^^
Datos históricos de la estación: Murcia-Puente Tocinos
Diario Informe para Septiembre 18, 2019 Unidades:  Ingés    Métrico   Ambas
Diario Semanal Mensual Anual
  Máxima: Mínima: Promedio:
Temperatura: 92.3 °F 72.9 °F 80.8 °F
Punto de rocio: 68 °F 53.2 °F 63.5 °F
Humedad: 82% 27% 59%
Velocidad viento: 10mph 0mph 4.2mph
Racha viento: 17.3mph - -
Viento- - ESE
Presión: 29.9 in 29.9 in -
Precipitación: 0 in    
 
 
Tabla de datos para Septiembre 18, 2019
Hora Temperatura Punto de rocio Presión Viento Velocidad viento Racha viento Humedad Intensidad lluvia(por hora) Nubes
00:04 76.6 °F 66.7 °F 29.9 in NE 7.4 mph 12 mph 71.4% 0 in
00:09 76.8 °F 66.7 °F 29.9 in NE 6.6 mph 9 mph 71% 0 in
00:14 76.8 °F 66.7 °F 29.9 in NE 4.7 mph 7 mph 71% 0 in
00:19 76.8 °F 66.7 °F 29.9 in ENE 4.4 mph 7 mph 71% 0 in
00:24 76.8 °F 66.7 °F 29.9 in ENE 3.6 mph 5 mph 71% 0 in
00:29 76.8 °F 66.6 °F 29.9 in ESE 2.5 mph 4.6 mph 70.7% 0 in
00:34 76.8 °F 66.4 °F 29.9 in Calm   5 mph 70% 0 in
00:39 77 °F 66.6 °F 29.9 in NNE 0.5 mph 4.7 mph 70.3% 0 in
00:44 76.8 °F 66.7 °F 29.9 in North 1.8 mph 5 mph 71% 0 in
00:49 76.8 °F 66.6 °F 29.9 in NNE 2 mph 5 mph 71% 0 in
00:54 76.6 °F 66.7 °F 29.9 in North 2.4 mph 5.2 mph 71.4% 0 in
00:59 76.5 °F 66.7 °F 29.9 in North 2.4 mph 5.2 mph 72% 0 in
01:04 76.1 °F 66.7 °F 29.9 in North 2.4 mph 5 mph 72.9% 0 in
01:09 75.9 °F 66.6 °F 29.9 in NE 2.3 mph 5 mph 73% 0 in
01:14 75.7 °F 66.7 °F 29.9 in NNO 2 mph 3 mph 73.4% 0 in
01:19 75.7 °F 66.9 °F 29.9 in ONO 1.4 mph   74% 0 in
01:24 75.7 °F 66.9 °F 29.9 in Calm   1.8 mph 74% 0 in
01:29 75.7 °F 66.9 °F 29.9 in NO 0.4 mph 4.6 mph 74% 0 in
01:34 75.7 °F 66.9 °F 29.9 in NO 1.4 mph 5 mph 74% 0 in
01:39 75.7 °F 66.9 °F 29.9 in NO 1.5 mph 4.6 mph 74% 0 in
01:44 75.7 °F 66.9 °F 29.9 in NO 1.8 mph 5 mph 74% 0 in
01:49 75.7 °F 66.9 °F 29.9 in NO 1.7 mph 3 mph 74% 0 in
01:54 75.7 °F 66.9 °F 29.9 in NNO 1.4 mph 3 mph 74% 0 in
01:59 75.7 °F 66.9 °F 29.9 in North 0.9 mph 3.5 mph 74% 0 in
02:04 75.7 °F 66.9 °F 29.9 in Calm   5.2 mph 74% 0 in
02:09 75.7 °F 67.1 °F 29.9 in NO 0.7 mph 5 mph 74.6% 0 in
02:14 75.6 °F 67.1 °F 29.9 in NO 2.4 mph 5 mph 75% 0 in
02:19 75.6 °F 67.1 °F 29.9 in NNO 1.7 mph 4.6 mph 75% 0 in
02:24 75.6 °F 67.1 °F 29.9 in Calm   5 mph 75% 0 in
02:29 75.4 °F 66.9 °F 29.9 in NE 0.5 mph 5 mph 75% 0 in
02:34 75.4 °F 66.9 °F 29.9 in NE 1.8 mph 5 mph 75% 0 in
02:39 75.4 °F 66.9 °F 29.9 in NE 2.2 mph 5.9 mph 75% 0 in
02:44 75.2 °F 66.7 °F 29.9 in NE 3.1 mph 6 mph 75% 0 in
02:49 74.8 °F 66.7 °F 29.9 in NE 3.1 mph 5.2 mph 75.7% 0 in
02:54 74.7 °F 66.7 °F 29.9 in NE 3.1 mph 5 mph 76% 0 in
02:59 74.7 °F 66.7 °F 29.9 in NE 3 mph 5.2 mph 76.5% 0 in
03:04 74.5 °F 66.7 °F 29.9 in NE 2.9 mph 5.2 mph 77% 0 in
03:09 74.5 °F 66.7 °F 29.9 in NE 3.1 mph 5.9 mph 77% 0 in
03:14 74.3 °F 66.7 °F 29.9 in NE 3.6 mph 6 mph 77.2% 0 in
03:19 74.1 °F 66.7 °F 29.9 in NE 3.6 mph 6 mph 77.8% 0 in
03:24 73.9 °F 66.6 °F 29.9 in NNE 3.6 mph 6.2 mph 78% 0 in
03:29 73.8 °F 66.6 °F 29.9 in NE 3.4 mph 6 mph 78% 0 in
03:34 73.6 °F 66.4 °F 29.9 in NE 3.1 mph 5.9 mph 78.2% 0 in
03:39 73.6 °F 66.6 °F 29.9 in NE 3.2 mph 6 mph 78.8% 0 in
03:44 73.4 °F 66.6 °F 29.9 in NE 3.6 mph 6.9 mph 79% 0 in
03:49 73.2 °F 66.4 °F 29.9 in NE 3.7 mph 7 mph 79% 0 in
03:54 73.2 °F 66.2 °F 29.9 in NNE 4 mph 7 mph 79% 0 in
03:59 72.9 °F 66.2 °F 29.9 in NNE 4 mph 6 mph 79.5% 0 in
04:04 72.9 °F 66.2 °F 29.9 in NNE 4 mph 6 mph 80% 0 in
04:09 72.9 °F 66.2 °F 29.9 in North 3.4 mph 4 mph 80% 0 in
04:14 72.9 °F 66.4 °F 29.9 in NNO 2 mph 3.6 mph 80% 0 in
04:19 72.9 °F 66.4 °F 29.9 in North 1.8 mph 4.6 mph 80.4% 0 in
04:24 72.9 °F 66.7 °F 29.9 in NNO 1.4 mph 5.2 mph 81% 0 in
04:29 72.9 °F 66.7 °F 29.9 in NO 1.7 mph 5 mph 81% 0 in
04:34 72.9 °F 66.7 °F 29.9 in North 2.4 mph 5 mph 81% 0 in
04:39 72.9 °F 66.7 °F 29.9 in North 2.2 mph 3.5 mph 81% 0 in
04:44 72.9 °F 66.7 °F 29.9 in NNO 1.8 mph 3 mph 81% 0 in
04:49 73 °F 66.9 °F 29.9 in NNO 1.2 mph 2 mph 81% 0 in
04:54 73 °F 66.9 °F 29.9 in Calm   4 mph 81% 0 in
04:59 73 °F 66.9 °F 29.9 in NO 0.5 mph 5 mph 81% 0 in
05:04 73 °F 66.9 °F 29.9 in NO 1.4 mph 5 mph 81% 0 in
05:09 73.2 °F 66.9 °F 29.9 in NO 1.5 mph 5 mph 81% 0 in
05:14 73.2 °F 66.9 °F 29.9 in NO 1.8 mph 3 mph 81% 0 in
05:19 73.2 °F 66.9 °F 29.9 in NO 1.3 mph 2.3 mph 81% 0 in
05:24 73 °F 66.9 °F 29.9 in Calm   3.5 mph 81% 0 in
05:29 73 °F 66.9 °F 29.9 in NO 0.6 mph 3.5 mph 81.1% 0 in
05:34 73 °F 67.3 °F 29.9 in NO 2 mph 3.6 mph 82% 0 in
05:39 73 °F 67.1 °F 29.9 in Oeste 2 mph 4.6 mph 82% 0 in
05:44 72.9 °F 67.1 °F 29.9 in Oeste 2 mph 5 mph 82% 0 in
05:49 72.9 °F 66.9 °F 29.9 in Oeste 1.9 mph 3 mph 82% 0 in
05:54 72.9 °F 66.9 °F 29.9 in ONO 1.8 mph 3 mph 82% 0 in
05:59 72.9 °F 66.9 °F 29.9 in ONO 1.2 mph 2.3 mph 82% 0 in
06:04 72.9 °F 66.9 °F 29.9 in Calm   2.4 mph 82% 0 in
06:09 72.9 °F 66.9 °F 29.9 in Calm   2.3 mph 82% 0 in
06:14 72.9 °F 66.9 °F 29.9 in Calm   2.9 mph 82% 0 in
06:19 72.9 °F 66.9 °F 29.9 in Calm   3 mph 82% 0 in
06:24 72.9 °F 66.9 °F 29.9 in Calm   2.9 mph 82% 0 in
06:29 72.9 °F 66.9 °F 29.9 in ONO 0.4 mph 3 mph 82% 0 in
06:34 72.9 °F 66.9 °F 29.9 in ONO 1.4 mph 3 mph 82% 0 in
06:39 72.9 °F 66.9 °F 29.9 in ONO 1 mph   82% 0 in
06:44 72.9 °F 66.7 °F 29.9 in Calm     81% 0 in
06:49 72.9 °F 66.9 °F 29.9 in Calm     81.4% 0 in
06:54 72.9 °F 66.9 °F 29.9 in Calm     82% 0 in
06:59 72.9 °F 66.9 °F 29.9 in Calm     82% 0 in
07:04 72.9 °F 66.9 °F 29.9 in Calm     82% 0 in
07:09 72.9 °F 66.9 °F 29.9 in Calm     82% 0 in
07:14 72.9 °F 66.9 °F 29.9 in Calm     81.7% 0 in
07:19 72.9 °F 66.6 °F 29.9 in ESE 0.4 mph 4.6 mph 80.6% 0 in
07:24 72.9 °F 66.2 °F 29.9 in SE 1.4 mph 5 mph 79.6% 0 in
07:29 73 °F 66 °F 29.9 in SSE 1.7 mph 5 mph 79% 0 in
07:34 73 °F 66 °F 29.9 in Sur 2.4 mph 5 mph 79% 0 in
07:39 73 °F 66.2 °F 29.9 in Sur 2.3 mph 4 mph 79% 0 in
07:44 73.4 °F 66.4 °F 29.9 in Sur 2 mph 4.6 mph 78.8% 0 in
07:49 73.6 °F 66.4 °F 29.9 in Sur 1.9 mph 5 mph 78% 0 in
07:54 73.8 °F 66.2 °F 29.9 in SSO 1.8 mph 5.4 mph 77.7% 0 in
07:59 73.8 °F 66.4 °F 29.9 in Sur 2.2 mph 6 mph 77.7% 0 in
08:04 73.8 °F 66.2 °F 29.9 in SSE 2.9 mph 6.9 mph 77.4% 0 in
08:09 73.8 °F 66.2 °F 29.9 in SSE 3.4 mph 7 mph 77.3% 0 in
08:14 73.8 °F 66.4 °F 29.9 in SSE 4.3 mph 7 mph 77.8% 0 in
08:19 73.8 °F 66.2 °F 29.9 in Sur 4.3 mph 7 mph 77.4% 0 in
08:24 73.8 °F 66.6 °F 29.9 in Sur 4.3 mph 6 mph 78% 0 in
08:29 73.9 °F 66.6 °F 29.9 in SE 4.1 mph 6 mph 78% 0 in
08:34 74.1 °F 66.7 °F 29.9 in SE 3.6 mph 5 mph 77.8% 0 in
08:39 74.7 °F 66.7 °F 29.9 in SSE 3.4 mph 5.4 mph 76.7% 0 in
08:44 74.8 °F 66.9 °F 29.9 in SSE 3.1 mph 6 mph 76% 0 in
08:49 75 °F 66.9 °F 29.9 in SE 3.1 mph 6 mph 76% 0 in
08:54 75 °F 66.9 °F 29.9 in Sur 3.1 mph 6 mph 76% 0 in
08:59 75.4 °F 67.1 °F 29.9 in SSO 3 mph 5.8 mph 75.5% 0 in
09:04 75.6 °F 67.1 °F 29.9 in Oeste 2.9 mph 6 mph 75% 0 in
09:09 75.7 °F 67.3 °F 29.9 in NO 2.7 mph 5 mph 75% 0 in
09:14 75.9 °F 67.1 °F 29.9 in NO 2.4 mph 6.2 mph 74.2% 0 in
09:19 76.3 °F 67.3 °F 29.9 in ONO 2.4 mph 6 mph 74% 0 in
09:24 76.5 °F 67.3 °F 29.9 in SSE 2.4 mph 5 mph 73.2% 0 in
09:29 76.6 °F 67.3 °F 29.9 in SE 2.4 mph 5 mph 73% 0 in
09:34 77 °F 67.6 °F 29.9 in Este 2.4 mph 5 mph 72.8% 0 in
09:39 77.4 °F 67.6 °F 29.9 in NNO 2.3 mph 4.6 mph 72.2% 0 in
09:44 77.7 °F 67.6 °F 29.9 in NNO 2 mph 5 mph 71.3% 0 in
09:49 77.9 °F 67.6 °F 29.9 in NO 2.1 mph 5 mph 70.7% 0 in
09:54 78.3 °F 67.8 °F 29.9 in NNO 2.4 mph 4 mph 70.5% 0 in
09:59 78.8 °F 67.8 °F 29.9 in NE 2.2 mph 5.8 mph 69.3% 0 in
10:04 79.2 °F 68 °F 29.9 in NE 1.8 mph 6 mph 68.6% 0 in
10:09 79.5 °F 67.8 °F 29.9 in ENE 2 mph 5 mph 67.7% 0 in
10:14 79.9 °F 67.5 °F 29.9 in ENE 2.4 mph 5.8 mph 66.2% 0 in
10:19 80.1 °F 67.5 °F 29.9 in NE 2.5 mph 6 mph 65.6% 0 in
10:24 80.1 °F 67.1 °F 29.9 in ENE 2.9 mph 5 mph 64.4% 0 in
10:29 80.2 °F 66.7 °F 29.9 in ENE 2.9 mph 5.2 mph 63.2% 0 in
10:34 80.6 °F 66.7 °F 29.9 in NE 2.9 mph 5.2 mph 63% 0 in
10:39 81.1 °F 66.6 °F 29.9 in NNE 2.7 mph 5.4 mph 61.6% 0 in
10:44 81.1 °F 66.9 °F 29.9 in NE 2.4 mph 6 mph 62.2% 0 in
10:49 81.1 °F 67.3 °F 29.9 in NNE 2.6 mph 8.1 mph 63% 0 in
10:54 81.3 °F 67.1 °F 29.9 in NNE 3.1 mph 8 mph 62% 0 in
10:59 81.7 °F 66.9 °F 29.9 in NNE 3.3 mph 6.9 mph 61.1% 0 in
11:04 81.7 °F 66.9 °F 29.9 in NE 3.6 mph 7 mph 61% 0 in
11:09 81.7 °F 66.9 °F 29.9 in ENE 3.6 mph 6.2 mph 60.9% 0 in
11:14 81.7 °F 66.9 °F 29.9 in NNE 3.6 mph 8.1 mph 60.8% 0 in
11:19 81.5 °F 66.7 °F 29.9 in ENE 4 mph 9.2 mph 60.8% 0 in
11:24 81.3 °F 66.6 °F 29.9 in NNE 4.7 mph 9 mph 60.9% 0 in
11:29 81.3 °F 66.2 °F 29.9 in NNE 4.9 mph 10.4 mph 60% 0 in
11:34 81.3 °F 66.2 °F 29.9 in NNE 5.4 mph 10 mph 60% 0 in
11:39 81.9 °F 66.4 °F 29.9 in NE 5 mph 9 mph 59.4% 0 in
11:44 82.2 °F 66 °F 29.9 in NE 4.3 mph 9 mph 58.1% 0 in
11:49 82.4 °F 65.8 °F 29.9 in ENE 4.4 mph 10.7 mph 57.4% 0 in
11:54 82.8 °F 65.5 °F 29.9 in NNE 4.7 mph 11 mph 56.1% 0 in
11:59 83.1 °F 65.3 °F 29.9 in NNE 4.7 mph 10.4 mph 55.3% 0 in
12:04 83.1 °F 65.5 °F 29.9 in North 4.7 mph 10 mph 55.1% 0 in
12:09 83.5 °F 65.7 °F 29.9 in NNE 4.8 mph 11.8 mph 55.1% 0 in
12:14 83.7 °F 65.7 °F 29.9 in NE 5.2 mph 12 mph 55% 0 in
12:19 84 °F 65.7 °F 29.9 in ENE 5 mph 9.7 mph 54.4% 0 in
12:24 84.4 °F 65.3 °F 29.9 in NNE 4.7 mph 14.7 mph 52.8% 0 in
12:29 84.4 °F 65.1 °F 29.9 in NNE 5.2 mph 15 mph 52.6% 0 in
12:34 84.9 °F 65.1 °F 29.9 in NE 6.2 mph 11.5 mph 51.8% 0 in
12:39 85.3 °F 64.6 °F 29.9 in NE 6.2 mph 12 mph 50.2% 0 in
12:44 85.5 °F 64.6 °F 29.9 in NNE 6.2 mph 12.5 mph 49.9% 0 in
12:49 85.6 °F 64.6 °F 29.9 in NE 6.1 mph 16.1 mph 49.5% 0 in
12:54 85.6 °F 64.8 °F 29.9 in NNE 5.9 mph 16 mph 49.6% 0 in
12:59 86 °F 64.2 °F 29.9 in NNE 6 mph 12 mph 48.4% 0 in
13:04 86.4 °F 64.2 °F 29.9 in NE 6.2 mph 11.5 mph 47.9% 0 in
13:09 86.5 °F 64.4 °F 29.9 in NE 6.2 mph 14 mph 47.7% 0 in
13:14 86.4 °F 64.4 °F 29.9 in NE 6.2 mph 14 mph 48.2% 0 in
13:19 86.5 °F 64.6 °F 29.9 in NE 6.6 mph 13.8 mph 48.2% 0 in
13:24 86.9 °F 65.5 °F 29.9 in NE 7.4 mph 15 mph 49% 0 in
13:29 87.1 °F 65.7 °F 29.9 in NE 7.8 mph 15 mph 49% 0 in
13:34 86.7 °F 65.3 °F 29.9 in NNE 8.5 mph 13 mph 48.8% 0 in
13:39 87.3 °F 64.9 °F 29.9 in Este 8.2 mph 17.3 mph 47.6% 0 in
13:44 87.4 °F 65.3 °F 29.9 in ENE 7.4 mph 17 mph 47.8% 0 in
13:49 87.6 °F 65.7 °F 29.9 in Este 7.6 mph 14 mph 48% 0 in
13:54 88 °F 64.8 °F 29.9 in ESE 8.1 mph 12.7 mph 46.1% 0 in
13:59 88.2 °F 64 °F 29.9 in SE 7.3 mph 13 mph 44.8% 0 in
14:04 88.5 °F 63.7 °F 29.9 in SE 5.9 mph 16.1 mph 43.9% 0 in
14:09 88.3 °F 63.5 °F 29.9 in ESE 6.7 mph 16 mph 43.9% 0 in
14:14 88.2 °F 63.3 °F 29.9 in SE 8.7 mph 14 mph 44% 0 in
14:19 88.5 °F 63.3 °F 29.9 in SE 8 mph 14 mph 43.2% 0 in
14:24 88.7 °F 63 °F 29.9 in ESE 6.4 mph 14.5 mph 42.3% 0 in
14:29 88.5 °F 62.4 °F 29.9 in ESE 6.7 mph 15 mph 41.9% 0 in
14:34 88.7 °F 62.2 °F 29.9 in ESE 7.4 mph 13.5 mph 41.3% 0 in
14:39 89.1 °F 61.5 °F 29.9 in ESE 7.5 mph 14 mph 39.9% 0 in
14:44 88.3 °F 60.6 °F 29.9 in Este 7.6 mph 13 mph 39.4% 0 in
14:49 88.5 °F 60.8 °F 29.9 in SE 7.2 mph 15.2 mph 39.4% 0 in
14:54 88.5 °F 60.3 °F 29.9 in SE 6.4 mph 15 mph 38.6% 0 in
14:59 88.9 °F 60.1 °F 29.9 in Este 6.3 mph 14 mph 38.3% 0 in
15:04 89.2 °F 59.7 °F 29.9 in Este 6.2 mph 12 mph 37.3% 0 in
15:09 89.4 °F 59.5 °F 29.9 in ENE 5.7 mph 10.4 mph 36.8% 0 in
15:14 89.8 °F 59.7 °F 29.9 in ESE 4.7 mph 11.5 mph 36.7% 0 in
15:19 90 °F 59.2 °F 29.9 in SSE 5.1 mph 12.7 mph 35.7% 0 in
15:24 90.3 °F 58.5 °F 29.9 in ESE 5.9 mph 13 mph 34.5% 0 in
15:29 90.3 °F 56.8 °F 29.9 in Este 6 mph 12.3 mph 32.4% 0 in
15:34 90.1 °F 55.4 °F 29.9 in ESE 6.2 mph 13 mph 30.9% 0 in
15:39 90.5 °F 54.7 °F 29.9 in SE 6.6 mph 13 mph 29.9% 0 in
15:44 90.7 °F 54.1 °F 29.9 in SE 7.6 mph 13.8 mph 29% 0 in
15:49 91 °F 53.6 °F 29.9 in ESE 7.5 mph 15 mph 28.2% 0 in
15:54 91.6 °F 53.6 °F 29.9 in ESE 7.4 mph 15 mph 27.7% 0 in
15:59 91.8 °F 53.2 °F 29.9 in SE 6.6 mph 10.4 mph 27.2% 0 in
16:04 91.9 °F 53.4 °F 29.9 in ESE 5.2 mph 10.4 mph 27.3% 0 in
16:05 91.9 °F 54.1 °F 29.9 in SE 5.2 mph 10 mph 28% 0 in
17:19 92.3 °F 53.4 °F 29.9 in ESE 7.1 mph 11.5 mph 27% 0 in
17:24 92.1 °F 53.8 °F 29.9 in Este 6.4 mph 15 mph 27.5% 0 in
17:29 92.1 °F 54.5 °F 29.9 in Este 6.3 mph 15 mph 28.2% 0 in
17:34 91.9 °F 55 °F 29.9 in ESE 5.9 mph 14 mph 28.9% 0 in
17:39 91.8 °F 54.9 °F 29.9 in ESE 6.6 mph 14 mph 28.9% 0 in
17:44 91.6 °F 55 °F 29.9 in ESE 8.7 mph 15 mph 29.1% 0 in
17:49 91 °F 55.2 °F 29.9 in ESE 8.5 mph 15 mph 29.8% 0 in
17:54 91 °F 54.9 °F 29.9 in Este 8.1 mph 13 mph 29.5% 0 in
17:59 91.4 °F 55.2 °F 29.9 in Este 7.5 mph 12 mph 29.5% 0 in
18:04 91.8 °F 55.9 °F 29.9 in ESE 5.9 mph 12.7 mph 30% 0 in
18:09 91.6 °F 55.9 °F 29.9 in ESE 6.3 mph 13 mph 30.2% 0 in
18:14 91.4 °F 55.8 °F 29.9 in Este 7.4 mph 12 mph 30.3% 0 in
18:19 91.2 °F 55.4 °F 29.9 in ESE 7.1 mph 12.7 mph 29.9% 0 in
18:24 91.2 °F 55.6 °F 29.9 in Este 6.4 mph 13 mph 30% 0 in
18:29 91.2 °F 55 °F 29.9 in Este 6.5 mph 11.8 mph 29.5% 0 in
18:34 91 °F 55.6 °F 29.9 in ENE 6.9 mph 13 mph 30.2% 0 in
18:39 90.9 °F 55.6 °F 29.9 in Este 7 mph 15.2 mph 30.4% 0 in
18:44 90.7 °F 55.4 °F 29.9 in NE 7.4 mph 17.3 mph 30.5% 0 in
18:49 90 °F 55.2 °F 29.9 in NE 8.1 mph 17.3 mph 30.9% 0 in
18:54 90.1 °F 54.5 °F 29.9 in NE 10 mph 16.1 mph 30% 0 in
18:59 90.1 °F 54.5 °F 29.9 in NE 10 mph 16.1 mph 30% 0 in
19:04 90 °F 54.9 °F 29.9 in NE 10 mph 16 mph 30.5% 0 in
19:09 90.1 °F 55.2 °F 29.9 in NE 9.8 mph 15.2 mph 30.9% 0 in
19:14 90 °F 54.5 °F 29.9 in NE 9.2 mph 16.1 mph 30.2% 0 in
19:19 90 °F 54.3 °F 29.9 in NE 9.4 mph 17.3 mph 29.9% 0 in
19:24 89.8 °F 54.9 °F 29.9 in NE 10 mph 17 mph 30.7% 0 in
19:29 89.8 °F 55.2 °F 29.9 in NE 9.6 mph 15.2 mph 31% 0 in
19:34 89.8 °F 56.1 °F 29.9 in NE 8.5 mph 16.1 mph 32.1% 0 in
19:39 89.6 °F 56.3 °F 29.9 in ENE 8.3 mph 16 mph 32.5% 0 in
19:44 90 °F 55.4 °F 29.9 in ENE 7.6 mph 10.7 mph 31.2% 0 in
19:49 90 °F 54.9 °F 29.9 in Este 7.1 mph 11.5 mph 30.6% 0 in
19:54 89.6 °F 54.7 °F 29.9 in Este 5.9 mph 13.8 mph 30.8% 0 in
19:59 89.2 °F 54.7 °F 29.9 in Este 6.3 mph 14 mph 31% 0 in
20:04 89.2 °F 55.2 °F 29.9 in Este 7.4 mph 11 mph 31.8% 0 in
20:09 89.1 °F 55.9 °F 29.9 in ESE 7.1 mph 11.5 mph 32.8% 0 in
20:14 88.7 °F 55.9 °F 29.9 in ESE 6.4 mph 12.7 mph 33% 0 in
20:19 88.3 °F 56.3 °F 29.9 in Este 6.3 mph 13 mph 33.9% 0 in
20:24 88.2 °F 58.3 °F 29.9 in ENE 6.2 mph 9 mph 36.7% 0 in
20:29 87.6 °F 58.8 °F 29.9 in ENE 5.9 mph 7 mph 37.8% 0 in
20:34 87.4 °F 59 °F 29.9 in ENE 4.7 mph 11.5 mph 38.3% 0 in
20:39 86.9 °F 58.8 °F 29.9 in ENE 5 mph 12 mph 39% 0 in
20:44 86.5 °F 58.8 °F 29.9 in ENE 5.9 mph 10 mph 39.4% 0 in
20:49 86.2 °F 59.4 °F 29.9 in ENE 5.7 mph 9.7 mph 40.5% 0 in
20:54 85.6 °F 59.4 °F 29.9 in ENE 5.2 mph 10.7 mph 41% 0 in
20:59 85.5 °F 59.2 °F 29.9 in ENE 4.9 mph 11 mph 41% 0 in
21:04 85.3 °F 59.2 °F 29.9 in NE 4.3 mph 9.2 mph 41.6% 0 in
21:09 84.7 °F 58.5 °F 29.9 in ENE 4.5 mph 11.2 mph 41% 0 in
21:14 84.6 °F 58.5 °F 29.9 in Este 5.2 mph 12 mph 41.2% 0 in
21:19 84.4 °F 58.1 °F 29.9 in ESE 5 mph 7.4 mph 41% 0 in
21:24 83.8 °F 57.9 °F 29.9 in ESE 4.7 mph 9.2 mph 41.3% 0 in
21:29 83.8 °F 57.6 °F 29.9 in ESE 4.6 mph 9 mph 41% 0 in
21:34 83.7 °F 57.9 °F 29.9 in ESE 4.3 mph 8.1 mph 41.6% 0 in
21:39 83.3 °F 58.8 °F 29.9 in Este 4.4 mph 8.7 mph 43.6% 0 in
21:44 82.9 °F 59.5 °F 29.9 in ENE 4.7 mph 9.2 mph 45.2% 0 in
21:49 82.8 °F 60.3 °F 29.9 in Este 4.7 mph 9.2 mph 46.9% 0 in
21:54 82.2 °F 61 °F 29.9 in Este 4.7 mph 9 mph 48.6% 0 in
21:59 81.9 °F 61.3 °F 29.9 in ENE 4.6 mph 9 mph 49.8% 0 in
22:04 81.7 °F 61.7 °F 29.9 in ENE 4.3 mph 7 mph 50.7% 0 in
22:09 81.3 °F 62.4 °F 29.9 in Este 4.4 mph 10.4 mph 52.7% 0 in
22:14 81.1 °F 63.3 °F 29.9 in Este 4.7 mph 10.4 mph 54.9% 0 in
22:19 80.8 °F 63.9 °F 29.9 in Este 4.9 mph 10.2 mph 56.4% 0 in
22:24 80.4 °F 63.7 °F 29.9 in ENE 5.4 mph 11.5 mph 56.8% 0 in
22:29 80.2 °F 63.1 °F 29.9 in NE 5.4 mph 12 mph 56.1% 0 in
22:34 80.1 °F 63 °F 29.9 in NE 5.4 mph 9 mph 56.1% 0 in
22:39 80.1 °F 63.7 °F 29.9 in NE 5.2 mph 8 mph 57.3% 0 in
22:44 79.7 °F 63.7 °F 29.9 in NE 4.7 mph 7.4 mph 58.3% 0 in
22:49 79.3 °F 63.9 °F 29.9 in NE 4.6 mph 7.4 mph 59% 0 in
22:54 79.2 °F 64.2 °F 29.9 in NE 4.3 mph 8.5 mph 60.1% 0 in
22:59 79 °F 64.8 °F 29.9 in NE 4.6 mph 9.2 mph 61.6% 0 in
23:04 78.6 °F 64.9 °F 29.9 in NE 5.2 mph 9.7 mph 62.9% 0 in
23:09 78.3 °F 65.1 °F 29.9 in NE 5.3 mph 10 mph 64% 0 in
23:14 78.3 °F 65.3 °F 29.9 in NE 5.4 mph 9 mph 64.7% 0 in
23:19 78.1 °F 65.5 °F 29.9 in NE 5.3 mph 9 mph 65.1% 0 in
23:24 77.7 °F 65.7 °F 29.9 in NE 5.2 mph 10.4 mph 66.3% 0 in
23:29 77.5 °F 65.8 °F 29.9 in NE 5.4 mph 10 mph 67.3% 0 in
23:34 77.4 °F 66.2 °F 29.9 in NE 5.9 mph 9 mph 68.5% 0 in
23:39 77.4 °F 66.6 °F 29.9 in NE 5.9 mph 10.4 mph 69.5% 0 in
23:44 77 °F 66.7 °F 29.9 in NE 5.9 mph 11.8 mph 70.5% 0 in
23:49 76.8 °F 66.7 °F 29.9 in NE 6.3 mph 12 mph 71.1% 0 in
23:54 76.8 °F 67.1 °F 29.9 in NE 7.6 mph 12 mph 72% 0 in
23:59 76.8 °F 67.1 °F 29.9 in NE 7.3 mph 12 mph 72% 0 in
Murcia-Puente Tocinos, España
Compliments of Weather Underground - 2.75 mb

La estación de MeteoMurcia.com, publica sus datos en los siguientes proyectos:

Weather Underground PWS IMURCIAP2 Meteoclimatic www.awekas.at

W3Counter
Web Analytics